Elwood, Iowa
Current Conditions -  °F | °C
As of 10:35 AM on Monday 26 Jan 2015 (Local Time) from KCWI Reporting Station
Scattered Clouds Scattered Clouds  
Wind Chill:   Ceiling: Unl
Heat Index: 19°   Visibility: 9mi
Dew Point: 18°   Wind: 10mph
Humidity: 93%   Direction: 170°S
Pressure: 29.93"   Gusts: NA
Location:  41.99°N, 90.74°W
Report Text: KCWI 261635Z AUTO 17009KT 9SM FEW010 SCT027 SCT032 M07/M08 A2993 RMK AO1
Loading
Personal Weather Stations






























Interactive Weather Map New forecast layout! Learn more

10-Day Weather Forecast

Advertisements
Track Severe Weather on mobile